createdAt,value
2019-05-03T00:00:37.683Z,99.90
2019-05-03T00:03:12.079Z,99.90
2019-05-03T00:05:52.458Z,99.90
2019-05-03T00:08:24.302Z,99.90
2019-05-03T00:10:59.466Z,99.90
2019-05-03T00:13:29.275Z,99.90
2019-05-03T00:16:14.770Z,99.90
2019-05-03T00:18:45.480Z,99.90
2019-05-03T00:21:17.156Z,99.90
2019-05-03T00:23:52.294Z,99.90
2019-05-03T00:26:22.767Z,99.90
2019-05-03T00:28:55.703Z,99.90
2019-05-03T00:31:25.715Z,99.90
2019-05-03T00:34:02.272Z,99.90
2019-05-03T00:36:48.975Z,99.90
2019-05-03T00:39:26.813Z,99.90
2019-05-03T00:41:56.839Z,99.90
2019-05-03T00:44:26.782Z,99.90
2019-05-03T00:46:56.664Z,99.90
2019-05-03T00:49:27.036Z,99.90
2019-05-03T00:51:56.913Z,99.90
2019-05-03T00:54:27.062Z,99.90
2019-05-03T00:56:56.927Z,99.90
2019-05-03T00:59:26.859Z,99.90
2019-05-03T01:01:56.751Z,99.90
2019-05-03T01:04:26.592Z,99.90
2019-05-03T01:06:56.584Z,99.90
2019-05-03T01:09:27.731Z,99.90
2019-05-03T01:11:57.730Z,99.90
2019-05-03T01:14:27.698Z,99.90
2019-05-03T01:16:57.580Z,99.90
2019-05-03T01:19:27.537Z,99.90
2019-05-03T01:21:57.320Z,99.90
2019-05-03T01:24:27.226Z,99.90
2019-05-03T01:26:57.032Z,99.90
2019-05-03T01:29:26.860Z,99.90
2019-05-03T01:31:56.772Z,99.90
2019-05-03T01:34:26.647Z,99.90
2019-05-03T01:36:56.476Z,99.90
2019-05-03T01:39:26.655Z,99.90
2019-05-03T01:41:56.468Z,99.90
2019-05-03T01:44:26.244Z,99.90
2019-05-03T01:46:57.718Z,99.90
2019-05-03T01:49:32.445Z,99.90
2019-05-03T01:52:21.925Z,99.90
2019-05-03T01:54:52.212Z,99.90
2019-05-03T01:57:22.454Z,99.90
2019-05-03T01:59:52.335Z,99.90
2019-05-03T02:02:52.373Z,99.90
2019-05-03T02:05:42.869Z,99.90
2019-05-03T02:08:14.205Z,99.90
2019-05-03T02:10:45.249Z,99.90
2019-05-03T02:13:15.292Z,99.90
2019-05-03T02:15:45.528Z,99.90
2019-05-03T02:18:15.734Z,99.90
2019-05-03T02:20:45.650Z,99.90
2019-05-03T02:23:15.504Z,99.90
2019-05-03T02:25:55.615Z,99.90
2019-05-03T02:28:17.271Z,99.90
2019-05-03T02:30:47.109Z,99.90
2019-05-03T02:33:17.088Z,99.90
2019-05-03T02:35:46.984Z,99.90
2019-05-03T02:38:16.988Z,99.90
2019-05-03T02:40:46.766Z,99.90
2019-05-03T02:43:21.793Z,99.90
2019-05-03T02:45:59.757Z,99.90
2019-05-03T02:48:36.608Z,99.90
2019-05-03T02:51:06.785Z,99.90
2019-05-03T02:53:36.778Z,99.90
2019-05-03T02:56:21.094Z,99.90
2019-05-03T02:58:38.500Z,99.90
2019-05-03T03:01:08.582Z,99.90
2019-05-03T03:03:39.312Z,99.90
2019-05-03T03:06:09.332Z,99.90
2019-05-03T03:08:39.600Z,99.90
2019-05-03T03:11:10.080Z,99.90
2019-05-03T03:13:40.141Z,99.90
2019-05-03T03:16:10.667Z,99.90
2019-05-03T03:18:41.862Z,99.90
2019-05-03T03:21:16.402Z,99.90
2019-05-03T03:23:58.233Z,99.90
2019-05-03T03:26:37.584Z,99.90
2019-05-03T03:29:05.650Z,99.90
2019-05-03T03:32:02.304Z,99.90
2019-05-03T03:34:38.573Z,99.90
2019-05-03T03:37:10.179Z,99.90
2019-05-03T03:39:40.869Z,99.90
2019-05-03T03:42:10.943Z,99.90
2019-05-03T03:44:40.833Z,99.90
2019-05-03T03:47:16.350Z,99.90
2019-05-03T03:49:46.306Z,99.90
2019-05-03T03:52:19.335Z,99.90
2019-05-03T03:54:50.337Z,99.90
2019-05-03T03:57:20.971Z,99.90
2019-05-03T03:59:50.917Z,99.90
2019-05-03T04:02:20.869Z,99.90
2019-05-03T04:04:50.833Z,99.90
2019-05-03T04:07:21.105Z,99.90
2019-05-03T04:09:51.363Z,99.90
2019-05-03T04:12:22.366Z,99.90
2019-05-03T04:15:01.751Z,99.90
2019-05-03T04:17:56.878Z,99.90
2019-05-03T04:20:30.772Z,99.90
2019-05-03T04:23:00.811Z,99.90
2019-05-03T04:25:30.674Z,99.90
2019-05-03T04:28:00.559Z,99.90
2019-05-03T04:30:30.464Z,99.90
2019-05-03T04:33:00.304Z,99.90
2019-05-03T04:35:30.146Z,99.90
2019-05-03T04:38:00.028Z,99.90
2019-05-03T04:40:30.103Z,99.90
2019-05-03T04:43:00.036Z,99.90
2019-05-03T04:45:30.121Z,99.90
2019-05-03T04:48:00.074Z,99.90
2019-05-03T04:50:29.081Z,99.90
2019-05-03T04:52:57.924Z,99.90
2019-05-03T04:55:27.678Z,98.50
2019-05-03T04:57:56.941Z,96.50
2019-05-03T05:00:26.206Z,93.30
2019-05-03T05:02:55.451Z,90.60
2019-05-03T05:05:26.083Z,84.30
2019-05-03T05:07:55.751Z,79.00
2019-05-03T05:10:26.070Z,73.40
2019-05-03T05:12:55.480Z,69.70
2019-05-03T05:15:26.403Z,67.40
2019-05-03T05:18:07.108Z,64.80
2019-05-03T05:20:45.359Z,62.40
2019-05-03T05:23:14.852Z,59.50
2019-05-03T05:25:49.446Z,56.80
2019-05-03T05:28:35.523Z,54.80
2019-05-03T05:31:04.826Z,53.60
2019-05-03T05:33:35.376Z,51.50
2019-05-03T05:36:04.895Z,50.20
2019-05-03T05:38:34.760Z,49.00
2019-05-03T05:41:05.309Z,46.80
2019-05-03T05:43:35.734Z,45.40
2019-05-03T05:46:05.325Z,44.30
2019-05-03T05:48:45.275Z,44.40
2019-05-03T05:51:16.165Z,43.90
2019-05-03T05:53:45.412Z,42.10
2019-05-03T05:56:27.479Z,41.00
2019-05-03T05:59:15.932Z,40.80
2019-05-03T06:01:49.433Z,40.20
2019-05-03T06:04:18.557Z,39.10
2019-05-03T06:07:05.558Z,38.50
2019-05-03T06:09:46.809Z,37.20
2019-05-03T06:12:21.317Z,35.80
2019-05-03T06:14:57.414Z,34.40
2019-05-03T06:17:31.641Z,33.70
2019-05-03T06:20:07.564Z,33.00
2019-05-03T06:23:01.616Z,31.10
2019-05-03T06:25:35.383Z,30.00
2019-05-03T06:28:17.737Z,29.40
2019-05-03T06:30:55.369Z,29.60
2019-05-03T06:33:24.554Z,29.20
2019-05-03T06:35:54.708Z,29.20
2019-05-03T06:38:24.454Z,28.50
2019-05-03T06:40:54.376Z,29.60
2019-05-03T06:43:24.443Z,29.80
2019-05-03T06:45:54.849Z,29.10
2019-05-03T06:48:27.943Z,28.90
2019-05-03T06:50:55.858Z,28.50
2019-05-03T06:53:26.522Z,28.90
2019-05-03T06:55:55.749Z,30.20
2019-05-03T06:58:33.515Z,30.50
2019-05-03T07:01:05.939Z,32.30
2019-05-03T07:03:48.939Z,33.70
2019-05-03T07:06:40.310Z,36.60
2019-05-03T07:09:15.493Z,36.30
2019-05-03T07:11:45.156Z,34.80
2019-05-03T07:14:15.562Z,34.70
2019-05-03T07:16:47.466Z,33.00
2019-05-03T07:19:16.373Z,31.90
2019-05-03T07:21:45.260Z,34.00
2019-05-03T07:24:14.700Z,36.60
2019-05-03T07:26:44.796Z,39.60
2019-05-03T07:29:15.230Z,40.70
2019-05-03T07:31:44.746Z,39.80
2019-05-03T07:34:15.652Z,41.10
2019-05-03T07:36:44.823Z,43.70
2019-05-03T07:39:14.539Z,42.50
2019-05-03T07:41:44.662Z,36.80
2019-05-03T07:44:15.226Z,35.40
2019-05-03T07:46:45.138Z,36.20
2019-05-03T07:49:15.362Z,35.50
2019-05-03T07:51:44.919Z,37.30
2019-05-03T07:54:15.689Z,36.20
2019-05-03T07:56:49.093Z,35.70
2019-05-03T07:59:18.030Z,37.60
2019-05-03T08:01:49.590Z,35.60
2019-05-03T08:04:18.448Z,30.00
2019-05-03T08:06:47.361Z,28.80
2019-05-03T08:09:16.205Z,30.60
2019-05-03T08:11:45.067Z,34.30
2019-05-03T08:14:17.510Z,36.90
2019-05-03T08:16:45.630Z,33.40
2019-05-03T08:19:15.257Z,32.30
2019-05-03T08:21:45.321Z,29.90
2019-05-03T08:24:14.907Z,27.40
2019-05-03T08:26:45.364Z,28.30
2019-05-03T08:29:18.541Z,29.70
2019-05-03T08:31:56.601Z,28.60
2019-05-03T08:34:47.627Z,27.30
2019-05-03T08:37:19.644Z,27.90
2019-05-03T08:39:48.615Z,30.30
2019-05-03T08:42:22.851Z,34.30
2019-05-03T08:44:51.864Z,39.10
2019-05-03T08:47:21.211Z,42.70
2019-05-03T08:49:50.117Z,43.90
2019-05-03T08:52:19.303Z,36.00
2019-05-03T08:54:48.152Z,29.60
2019-05-03T08:57:17.119Z,28.50
2019-05-03T08:59:46.014Z,30.10
2019-05-03T09:02:17.782Z,32.90
2019-05-03T09:04:46.408Z,35.80
2019-05-03T09:07:15.589Z,38.20
2019-05-03T09:09:51.161Z,39.20
2019-05-03T09:12:25.575Z,38.90
2019-05-03T09:14:54.782Z,35.20
2019-05-03T09:17:24.779Z,29.50
2019-05-03T09:19:54.884Z,28.30
2019-05-03T09:23:48.258Z,28.70
2019-05-03T09:25:15.456Z,27.30
2019-05-03T09:27:44.761Z,25.00
2019-05-03T09:30:14.482Z,23.70
2019-05-03T09:32:44.754Z,22.60
2019-05-03T09:35:29.774Z,21.10
2019-05-03T09:37:47.809Z,21.60
2019-05-03T09:40:17.080Z,21.70
2019-05-03T09:42:46.015Z,23.10
2019-05-03T09:45:15.428Z,25.20
2019-05-03T09:47:44.902Z,27.40
2019-05-03T09:50:16.545Z,27.00
2019-05-03T09:52:47.555Z,24.60
2019-05-03T09:55:26.303Z,25.00
2019-05-03T09:57:57.573Z,27.20
2019-05-03T10:00:26.823Z,29.70
2019-05-03T10:02:57.522Z,31.90
2019-05-03T10:05:29.867Z,34.00
2019-05-03T10:07:58.834Z,37.30
2019-05-03T10:10:27.849Z,38.90
2019-05-03T10:12:56.871Z,40.80
2019-05-03T10:15:33.769Z,44.30
2019-05-03T10:18:10.556Z,46.90
2019-05-03T10:20:35.670Z,50.00
2019-05-03T10:23:15.131Z,51.80
2019-05-03T10:25:45.520Z,52.70
2019-05-03T10:28:17.858Z,49.50
2019-05-03T10:30:47.088Z,41.50
2019-05-03T10:33:21.383Z,31.00
2019-05-03T10:35:50.591Z,28.00
2019-05-03T10:38:19.696Z,24.70
2019-05-03T10:40:48.590Z,22.90
2019-05-03T10:43:17.682Z,22.00
2019-05-03T10:45:46.888Z,21.30
2019-05-03T10:48:16.125Z,21.30
2019-05-03T10:50:45.249Z,21.40
2019-05-03T10:53:28.243Z,20.60
2019-05-03T10:56:22.758Z,22.50
2019-05-03T10:58:49.717Z,24.60
2019-05-03T11:01:20.497Z,26.70
2019-05-03T11:03:51.816Z,28.40
2019-05-03T11:06:21.882Z,30.00
2019-05-03T11:08:51.996Z,31.80
2019-05-03T11:11:23.208Z,34.00
2019-05-03T11:13:55.199Z,35.90
2019-05-03T11:16:28.205Z,37.50
2019-05-03T11:19:05.692Z,36.10
2019-05-03T11:21:35.876Z,37.10
2019-05-03T11:24:07.472Z,35.60
2019-05-03T11:26:39.365Z,36.20
2019-05-03T11:29:15.247Z,36.50
2019-05-03T11:32:10.218Z,35.60
2019-05-03T11:35:00.767Z,35.90
2019-05-03T11:37:52.723Z,35.50
2019-05-03T11:40:28.937Z,34.80
2019-05-03T11:43:07.127Z,32.60
2019-05-03T11:45:41.173Z,32.50
2019-05-03T11:48:10.263Z,33.10
2019-05-03T11:50:45.189Z,34.80
2019-05-03T11:53:15.370Z,36.60
2019-05-03T11:55:48.482Z,37.30
2019-05-03T11:58:25.815Z,38.40
2019-05-03T12:01:18.875Z,41.20
2019-05-03T12:04:05.508Z,43.70
2019-05-03T12:06:27.782Z,45.40
2019-05-03T12:09:12.721Z,46.90
2019-05-03T12:11:47.740Z,47.30
2019-05-03T12:14:19.989Z,47.10
2019-05-03T12:17:17.238Z,47.40
2019-05-03T12:19:32.011Z,46.90
2019-05-03T12:22:06.164Z,45.80
2019-05-03T12:24:45.840Z,43.50
2019-05-03T12:27:15.599Z,40.70
2019-05-03T12:29:46.410Z,40.20
2019-05-03T12:32:19.146Z,41.30
2019-05-03T12:34:59.355Z,41.20
2019-05-03T12:37:29.522Z,41.30
2019-05-03T12:39:59.803Z,40.90
2019-05-03T12:42:35.252Z,41.70
2019-05-03T12:45:15.233Z,39.20
2019-05-03T12:47:47.612Z,38.90
2019-05-03T12:50:20.114Z,38.60
2019-05-03T12:52:50.734Z,37.80
2019-05-03T12:55:25.740Z,38.80
2019-05-03T12:57:56.024Z,40.10
2019-05-03T13:00:47.913Z,42.40
2019-05-03T13:03:45.666Z,43.60
2019-05-03T13:06:17.667Z,44.10
2019-05-03T13:08:47.973Z,46.10
2019-05-03T13:11:18.457Z,47.10
2019-05-03T13:13:48.696Z,48.80
2019-05-03T13:16:20.304Z,49.80
2019-05-03T13:18:50.301Z,50.50
2019-05-03T13:21:25.291Z,51.20
2019-05-03T13:23:55.851Z,51.60
2019-05-03T13:26:25.967Z,51.80
2019-05-03T13:28:59.785Z,49.90
2019-05-03T13:31:30.340Z,48.60
2019-05-03T13:34:02.223Z,46.30
2019-05-03T13:36:34.908Z,45.10
2019-05-03T13:39:14.074Z,45.10
2019-05-03T13:41:39.648Z,44.90
2019-05-03T13:44:09.625Z,43.80
2019-05-03T13:46:44.727Z,44.40
2019-05-03T13:49:15.877Z,44.30
2019-05-03T13:51:46.117Z,42.20
2019-05-03T13:54:16.237Z,42.30
2019-05-03T13:56:45.254Z,43.70
2019-05-03T13:59:19.782Z,44.30
2019-05-03T14:01:46.762Z,43.40
2019-05-03T14:04:16.630Z,43.50
2019-05-03T14:06:46.576Z,45.50
2019-05-03T14:09:16.459Z,46.10
2019-05-03T14:11:46.601Z,47.00
2019-05-03T14:14:16.431Z,49.30
2019-05-03T14:16:46.448Z,51.40
2019-05-03T14:19:22.793Z,52.70
2019-05-03T14:21:57.256Z,53.40
2019-05-03T14:24:27.576Z,54.80
2019-05-03T14:26:57.849Z,55.00
2019-05-03T14:29:29.453Z,54.70
2019-05-03T14:31:59.253Z,54.40
2019-05-03T14:34:29.129Z,54.30
2019-05-03T14:37:00.833Z,54.50
2019-05-03T14:39:30.715Z,57.80
2019-05-03T14:42:00.687Z,59.10
2019-05-03T14:44:30.552Z,57.70
2019-05-03T14:47:00.431Z,56.40
2019-05-03T14:49:30.525Z,55.90
2019-05-03T14:52:00.400Z,55.70
2019-05-03T14:54:34.425Z,55.30
2019-05-03T14:57:14.567Z,55.80
2019-05-03T15:00:16.904Z,56.40
2019-05-03T15:03:02.051Z,55.50
2019-05-03T15:05:34.680Z,55.70
2019-05-03T15:08:05.537Z,55.50
2019-05-03T15:10:35.572Z,55.50
2019-05-03T15:13:05.499Z,55.20
2019-05-03T15:15:35.360Z,53.80
2019-05-03T15:18:05.979Z,52.00
2019-05-03T15:20:36.288Z,51.80
2019-05-03T15:23:06.668Z,50.90
2019-05-03T15:25:39.087Z,50.70
2019-05-03T15:28:08.963Z,50.20
2019-05-03T15:30:39.212Z,50.10
2019-05-03T15:33:09.312Z,49.50
2019-05-03T15:35:39.154Z,51.10
2019-05-03T15:38:09.057Z,51.30
2019-05-03T15:40:38.910Z,51.70
2019-05-03T15:43:16.624Z,52.40
2019-05-03T15:45:54.833Z,52.50
2019-05-03T15:48:29.832Z,52.50
2019-05-03T15:50:59.977Z,52.70
2019-05-03T15:53:29.937Z,51.80
2019-05-03T15:55:59.774Z,51.80
2019-05-03T15:58:29.762Z,51.30
2019-05-03T16:00:59.854Z,50.70
2019-05-03T16:03:29.724Z,49.80
2019-05-03T16:06:00.066Z,50.10
2019-05-03T16:08:29.980Z,50.60
2019-05-03T16:11:00.125Z,51.50
2019-05-03T16:13:30.043Z,51.60
2019-05-03T16:16:00.087Z,51.80
2019-05-03T16:18:29.994Z,52.00
2019-05-03T16:20:59.968Z,52.70
2019-05-03T16:23:29.771Z,53.00
2019-05-03T16:26:00.621Z,53.80
2019-05-03T16:28:39.337Z,55.10
2019-05-03T16:31:14.432Z,55.70
2019-05-03T16:33:45.672Z,55.10
2019-05-03T16:36:15.890Z,55.80
2019-05-03T16:38:46.377Z,56.00
2019-05-03T16:41:17.922Z,56.20
2019-05-03T16:43:48.005Z,56.50
2019-05-03T16:46:20.106Z,57.30
2019-05-03T16:48:50.167Z,57.90
2019-05-03T16:51:20.500Z,58.80
2019-05-03T16:53:50.571Z,57.40
2019-05-03T16:56:20.581Z,58.40
2019-05-03T16:58:50.801Z,58.70
2019-05-03T17:01:20.794Z,58.70
2019-05-03T17:03:55.053Z,60.00
2019-05-03T17:06:35.499Z,59.60
2019-05-03T17:09:25.117Z,59.60
2019-05-03T17:12:10.439Z,60.90
2019-05-03T17:14:40.650Z,61.10
2019-05-03T17:17:10.891Z,60.50
2019-05-03T17:19:41.020Z,59.70
2019-05-03T17:22:11.015Z,60.30
2019-05-03T17:24:41.044Z,60.30
2019-05-03T17:27:11.138Z,60.70
2019-05-03T17:29:41.272Z,61.10
2019-05-03T17:32:11.282Z,60.60
2019-05-03T17:34:41.439Z,61.30
2019-05-03T17:37:11.894Z,61.50
2019-05-03T17:40:07.186Z,62.40
2019-05-03T17:43:02.162Z,63.40
2019-05-03T17:45:38.178Z,63.80
2019-05-03T17:48:20.326Z,62.90
2019-05-03T17:50:58.161Z,62.40
2019-05-03T17:53:54.820Z,62.20
2019-05-03T17:56:44.569Z,63.10
2019-05-03T17:59:24.487Z,64.50
2019-05-03T18:02:15.417Z,64.50
2019-05-03T18:04:54.973Z,64.70
2019-05-03T18:07:41.799Z,65.00
2019-05-03T18:10:15.208Z,64.90
2019-05-03T18:12:45.300Z,65.30
2019-05-03T18:15:15.656Z,65.30
2019-05-03T18:17:45.831Z,65.30
2019-05-03T18:20:15.876Z,65.00
2019-05-03T18:22:46.010Z,65.80
2019-05-03T18:25:16.218Z,67.30
2019-05-03T18:27:47.807Z,68.20
2019-05-03T18:30:18.110Z,68.10
2019-05-03T18:32:48.085Z,69.20
2019-05-03T18:35:18.074Z,70.40
2019-05-03T18:37:59.480Z,71.60
2019-05-03T18:40:32.293Z,72.40
2019-05-03T18:43:08.090Z,73.90
2019-05-03T18:46:08.711Z,74.60
2019-05-03T18:48:38.840Z,76.00
2019-05-03T18:51:10.307Z,77.50
2019-05-03T18:53:40.272Z,78.60
2019-05-03T18:56:14.623Z,79.00
2019-05-03T18:58:44.918Z,79.10
2019-05-03T19:01:15.504Z,79.70
2019-05-03T19:03:47.634Z,80.30
2019-05-03T19:06:18.942Z,80.90
2019-05-03T19:09:07.198Z,80.70
2019-05-03T19:12:00.354Z,80.80
2019-05-03T19:14:32.075Z,81.70
2019-05-03T19:17:20.167Z,80.90
2019-05-03T19:19:52.205Z,80.30
2019-05-03T19:22:22.509Z,80.10
2019-05-03T19:24:52.622Z,80.40
2019-05-03T19:27:24.681Z,80.80
2019-05-03T19:29:55.661Z,80.70
2019-05-03T19:32:28.359Z,81.50
2019-05-03T19:35:04.947Z,81.50
2019-05-03T19:37:35.372Z,81.20
2019-05-03T19:40:06.490Z,81.40
2019-05-03T19:42:37.632Z,81.70
2019-05-03T19:45:11.240Z,81.90
2019-05-03T19:47:41.264Z,82.10
2019-05-03T19:50:11.449Z,82.40
2019-05-03T19:53:08.893Z,82.10
2019-05-03T19:55:39.292Z,82.50
2019-05-03T19:58:09.598Z,82.30
2019-05-03T20:00:48.936Z,82.60
2019-05-03T20:03:31.172Z,83.20
2019-05-03T20:06:14.381Z,83.40
2019-05-03T20:08:48.033Z,83.70
2019-05-03T20:11:19.184Z,84.10
2019-05-03T20:13:49.619Z,85.40
2019-05-03T20:16:19.524Z,84.80
2019-05-03T20:18:49.452Z,85.10
2019-05-03T20:21:22.188Z,85.60
2019-05-03T20:23:52.138Z,86.00
2019-05-03T20:26:25.296Z,85.80
2019-05-03T20:28:55.448Z,86.50
2019-05-03T20:31:25.535Z,86.90
2019-05-03T20:33:55.384Z,87.60
2019-05-03T20:36:27.032Z,88.10
2019-05-03T20:38:56.933Z,88.50
2019-05-03T20:41:27.545Z,89.30
2019-05-03T20:44:11.716Z,89.50
2019-05-03T20:46:49.847Z,90.00
2019-05-03T20:49:19.939Z,90.20
2019-05-03T20:51:51.337Z,90.60
2019-05-03T20:54:21.434Z,90.70
2019-05-03T20:56:51.665Z,90.80
2019-05-03T20:59:21.607Z,90.90
2019-05-03T21:01:51.573Z,90.90
2019-05-03T21:04:21.491Z,90.80
2019-05-03T21:06:51.528Z,90.70
2019-05-03T21:09:21.540Z,90.60
2019-05-03T21:11:51.495Z,90.70
2019-05-03T21:14:21.653Z,90.60
2019-05-03T21:17:04.564Z,90.50
2019-05-03T21:19:55.167Z,90.50
2019-05-03T21:22:30.443Z,90.20
2019-05-03T21:25:07.356Z,89.30
2019-05-03T21:27:37.628Z,89.40
2019-05-03T21:30:07.876Z,89.50
2019-05-03T21:32:37.773Z,89.20
2019-05-03T21:35:07.903Z,89.20
2019-05-03T21:37:37.989Z,89.90
2019-05-03T21:40:08.155Z,89.60
2019-05-03T21:42:38.157Z,90.00
2019-05-03T21:45:09.239Z,90.10
2019-05-03T21:48:05.040Z,90.20
2019-05-03T21:50:35.349Z,90.50
2019-05-03T21:53:05.849Z,90.50
2019-05-03T21:55:36.524Z,90.70
2019-05-03T21:58:10.050Z,91.00
2019-05-03T22:00:50.931Z,91.30
2019-05-03T22:03:21.548Z,91.60
2019-05-03T22:06:00.360Z,91.10
2019-05-03T22:08:34.927Z,91.20
2019-05-03T22:11:05.456Z,91.20
2019-05-03T22:13:37.121Z,91.20
2019-05-03T22:16:34.487Z,91.30
2019-05-03T22:19:08.433Z,91.60
2019-05-03T22:22:12.264Z,91.60
2019-05-03T22:24:47.843Z,92.50
2019-05-03T22:27:24.649Z,93.10
2019-05-03T22:30:00.770Z,93.80
2019-05-03T22:32:35.488Z,94.40
2019-05-03T22:35:10.257Z,94.70
2019-05-03T22:37:46.558Z,94.40
2019-05-03T22:40:25.147Z,94.70
2019-05-03T22:42:57.102Z,94.50
2019-05-03T22:45:30.598Z,94.20
2019-05-03T22:48:02.847Z,95.00
2019-05-03T22:50:40.481Z,95.50
2019-05-03T22:53:17.143Z,95.80
2019-05-03T22:55:48.428Z,96.70
2019-05-03T22:58:22.175Z,97.70
2019-05-03T23:00:55.745Z,98.80
2019-05-03T23:03:30.882Z,99.80
2019-05-03T23:06:19.336Z,99.90
2019-05-03T23:08:40.772Z,99.90
2019-05-03T23:11:12.747Z,99.90
2019-05-03T23:13:47.540Z,99.90
2019-05-03T23:16:19.559Z,99.90
2019-05-03T23:18:54.797Z,99.90
2019-05-03T23:21:31.153Z,99.90
2019-05-03T23:24:07.702Z,99.90
2019-05-03T23:26:42.738Z,99.90
2019-05-03T23:29:15.638Z,99.90
2019-05-03T23:31:46.209Z,99.90
2019-05-03T23:34:19.149Z,99.90
2019-05-03T23:36:54.832Z,99.90
2019-05-03T23:39:27.194Z,99.90
2019-05-03T23:42:06.895Z,99.90
2019-05-03T23:44:37.245Z,99.90
2019-05-03T23:47:29.373Z,99.90
2019-05-03T23:50:02.792Z,99.90
2019-05-03T23:52:40.434Z,99.90
2019-05-03T23:55:34.746Z,99.90
2019-05-03T23:58:07.230Z,99.90
